sensor_id;sensor_type;location;lat;lon;timestamp;pressure;altitude;pressure_sealevel;temperature;humidity
73085;BME280;62974;49.460;10.892;2023-04-09T00:00:21;98514.69;;;6.68;79.99
73085;BME280;62974;49.460;10.892;2023-04-09T00:02:48;98517.09;;;6.53;81.65
73085;BME280;62974;49.460;10.892;2023-04-09T00:05:16;98512.19;;;6.66;79.43
73085;BME280;62974;49.460;10.892;2023-04-09T00:07:43;98507.69;;;6.67;79.26
73085;BME280;62974;49.460;10.892;2023-04-09T00:10:11;98509.34;;;6.68;79.51
73085;BME280;62974;49.460;10.892;2023-04-09T00:12:40;98517.38;;;6.68;79.46
73085;BME280;62974;49.460;10.892;2023-04-09T00:15:07;98517.06;;;6.45;82.25
73085;BME280;62974;49.460;10.892;2023-04-09T00:17:46;98510.66;;;6.64;79.33
73085;BME280;62974;49.460;10.892;2023-04-09T00:20:14;98515.41;;;6.26;84.74
73085;BME280;62974;49.460;10.892;2023-04-09T00:22:41;98507.13;;;6.55;80.53
73085;BME280;62974;49.460;10.892;2023-04-09T00:25:08;98499.47;;;6.60;79.46
73085;BME280;62974;49.460;10.892;2023-04-09T00:27:36;98508.78;;;6.56;81.16
73085;BME280;62974;49.460;10.892;2023-04-09T00:30:06;98503.13;;;6.59;79.61
73085;BME280;62974;49.460;10.892;2023-04-09T00:32:34;98509.13;;;6.61;79.58
73085;BME280;62974;49.460;10.892;2023-04-09T00:35:02;98505.81;;;6.59;79.86
73085;BME280;62974;49.460;10.892;2023-04-09T00:37:30;98512.13;;;6.58;80.88
73085;BME280;62974;49.460;10.892;2023-04-09T00:39:57;98501.91;;;6.53;80.73
73085;BME280;62974;49.460;10.892;2023-04-09T00:42:25;98511.66;;;6.63;79.70
73085;BME280;62974;49.460;10.892;2023-04-09T00:44:52;98504.63;;;6.61;79.48
73085;BME280;62974;49.460;10.892;2023-04-09T00:47:21;98504.81;;;6.60;79.77
73085;BME280;62974;49.460;10.892;2023-04-09T00:49:48;98507.16;;;6.63;79.36
73085;BME280;62974;49.460;10.892;2023-04-09T00:52:16;98506.47;;;6.61;79.18
73085;BME280;62974;49.460;10.892;2023-04-09T00:54:43;98509.31;;;6.59;79.14
73085;BME280;62974;49.460;10.892;2023-04-09T00:57:10;98503.97;;;6.59;79.44
73085;BME280;62974;49.460;10.892;2023-04-09T00:59:38;98508.63;;;6.57;79.10
73085;BME280;62974;49.460;10.892;2023-04-09T01:02:06;98513.13;;;6.57;79.61
73085;BME280;62974;49.460;10.892;2023-04-09T01:04:35;98507.94;;;6.55;79.39
73085;BME280;62974;49.460;10.892;2023-04-09T01:07:11;98506.97;;;6.56;79.51
73085;BME280;62974;49.460;10.892;2023-04-09T01:09:42;98508.63;;;6.57;79.72
73085;BME280;62974;49.460;10.892;2023-04-09T01:12:20;98504.44;;;6.55;79.30
73085;BME280;62974;49.460;10.892;2023-04-09T01:14:53;98506.28;;;6.54;79.75
73085;BME280;62974;49.460;10.892;2023-04-09T01:17:25;98505.28;;;6.55;79.78
73085;BME280;62974;49.460;10.892;2023-04-09T01:20:00;98507.78;;;6.57;79.07
73085;BME280;62974;49.460;10.892;2023-04-09T01:22:36;98499.94;;;6.55;79.30
73085;BME280;62974;49.460;10.892;2023-04-09T01:25:12;98496.28;;;6.56;79.26
73085;BME280;62974;49.460;10.892;2023-04-09T01:27:53;98496.75;;;6.52;79.63
73085;BME280;62974;49.460;10.892;2023-04-09T01:30:27;98499.25;;;6.53;79.38
73085;BME280;62974;49.460;10.892;2023-04-09T01:32:56;98496.91;;;6.50;80.26
73085;BME280;62974;49.460;10.892;2023-04-09T01:35:25;98500.41;;;6.51;80.01
73085;BME280;62974;49.460;10.892;2023-04-09T01:37:55;98500.28;;;6.52;80.39
73085;BME280;62974;49.460;10.892;2023-04-09T01:40:23;98501.72;;;6.47;80.76
73085;BME280;62974;49.460;10.892;2023-04-09T01:42:51;98501.00;;;6.37;81.46
73085;BME280;62974;49.460;10.892;2023-04-09T01:45:19;98496.53;;;6.45;80.02
73085;BME280;62974;49.460;10.892;2023-04-09T01:47:48;98506.91;;;6.48;80.35
73085;BME280;62974;49.460;10.892;2023-04-09T01:50:16;98516.78;;;6.30;82.71
73085;BME280;62974;49.460;10.892;2023-04-09T01:52:44;98497.03;;;6.41;81.51
73085;BME280;62974;49.460;10.892;2023-04-09T01:55:12;98500.75;;;6.48;79.67
73085;BME280;62974;49.460;10.892;2023-04-09T01:57:42;98501.59;;;6.48;80.16
73085;BME280;62974;49.460;10.892;2023-04-09T02:00:10;98507.91;;;6.47;79.93
73085;BME280;62974;49.460;10.892;2023-04-09T02:02:44;98503.41;;;6.48;79.88
73085;BME280;62974;49.460;10.892;2023-04-09T02:05:16;98507.72;;;6.41;82.13
73085;BME280;62974;49.460;10.892;2023-04-09T02:07:49;98497.03;;;6.41;80.70
73085;BME280;62974;49.460;10.892;2023-04-09T02:10:19;98502.19;;;6.42;80.33
73085;BME280;62974;49.460;10.892;2023-04-09T02:12:50;98503.19;;;6.41;81.36
73085;BME280;62974;49.460;10.892;2023-04-09T02:15:19;98504.34;;;6.39;81.42
73085;BME280;62974;49.460;10.892;2023-04-09T02:17:47;98499.00;;;6.39;80.69
73085;BME280;62974;49.460;10.892;2023-04-09T02:20:17;98500.50;;;6.41;80.73
73085;BME280;62974;49.460;10.892;2023-04-09T02:22:45;98500.16;;;6.36;81.65
73085;BME280;62974;49.460;10.892;2023-04-09T02:25:12;98503.50;;;6.38;80.40
73085;BME280;62974;49.460;10.892;2023-04-09T02:27:40;98500.84;;;6.38;80.02
73085;BME280;62974;49.460;10.892;2023-04-09T02:30:08;98521.75;;;6.25;82.74
73085;BME280;62974;49.460;10.892;2023-04-09T02:32:35;98513.78;;;6.33;82.39
73085;BME280;62974;49.460;10.892;2023-04-09T02:35:06;98517.00;;;6.37;81.86
73085;BME280;62974;49.460;10.892;2023-04-09T02:37:35;98510.13;;;6.34;81.50
73085;BME280;62974;49.460;10.892;2023-04-09T02:40:03;98516.47;;;6.33;81.72
73085;BME280;62974;49.460;10.892;2023-04-09T02:42:30;98513.66;;;6.35;80.68
73085;BME280;62974;49.460;10.892;2023-04-09T02:44:58;98521.00;;;6.33;81.48
73085;BME280;62974;49.460;10.892;2023-04-09T02:47:25;98515.78;;;6.31;81.32
73085;BME280;62974;49.460;10.892;2023-04-09T02:49:53;98517.94;;;6.28;82.12
73085;BME280;62974;49.460;10.892;2023-04-09T02:52:20;98521.22;;;6.22;82.77
73085;BME280;62974;49.460;10.892;2023-04-09T02:54:51;98512.09;;;6.24;81.62
73085;BME280;62974;49.460;10.892;2023-04-09T02:57:18;98514.56;;;6.26;81.35
73085;BME280;62974;49.460;10.892;2023-04-09T02:59:46;98515.59;;;6.25;81.15
73085;BME280;62974;49.460;10.892;2023-04-09T03:02:13;98511.56;;;6.21;81.76
73085;BME280;62974;49.460;10.892;2023-04-09T03:04:41;98511.31;;;6.14;82.43
73085;BME280;62974;49.460;10.892;2023-04-09T03:07:09;98505.69;;;6.17;81.31
73085;BME280;62974;49.460;10.892;2023-04-09T03:09:36;98501.19;;;6.18;81.46
73085;BME280;62974;49.460;10.892;2023-04-09T03:12:05;98504.34;;;6.13;80.75
73085;BME280;62974;49.460;10.892;2023-04-09T03:14:33;98499.63;;;6.07;81.84
73085;BME280;62974;49.460;10.892;2023-04-09T03:17:00;98500.44;;;6.07;82.40
73085;BME280;62974;49.460;10.892;2023-04-09T03:19:29;98511.25;;;6.06;81.71
73085;BME280;62974;49.460;10.892;2023-04-09T03:21:57;98486.91;;;6.01;81.38
73085;BME280;62974;49.460;10.892;2023-04-09T03:24:24;98495.13;;;5.90;81.38
73085;BME280;62974;49.460;10.892;2023-04-09T03:26:52;98487.72;;;5.84;81.03
73085;BME280;62974;49.460;10.892;2023-04-09T03:29:20;98493.66;;;5.78;80.75
73085;BME280;62974;49.460;10.892;2023-04-09T03:31:48;98492.84;;;5.77;81.16
73085;BME280;62974;49.460;10.892;2023-04-09T03:34:15;98497.16;;;5.78;81.30
73085;BME280;62974;49.460;10.892;2023-04-09T03:36:43;98490.41;;;5.66;81.20
73085;BME280;62974;49.460;10.892;2023-04-09T03:39:10;98499.53;;;5.63;80.59
73085;BME280;62974;49.460;10.892;2023-04-09T03:41:38;98499.22;;;5.66;80.50
73085;BME280;62974;49.460;10.892;2023-04-09T03:44:05;98498.09;;;5.69;80.16
73085;BME280;62974;49.460;10.892;2023-04-09T03:46:34;98499.53;;;5.63;80.45
73085;BME280;62974;49.460;10.892;2023-04-09T03:49:02;98502.53;;;5.60;80.05
73085;BME280;62974;49.460;10.892;2023-04-09T03:51:29;98502.00;;;5.57;80.23
73085;BME280;62974;49.460;10.892;2023-04-09T03:53:57;98505.78;;;5.54;79.86
73085;BME280;62974;49.460;10.892;2023-04-09T03:56:24;98515.22;;;5.49;80.56
73085;BME280;62974;49.460;10.892;2023-04-09T03:58:52;98516.50;;;5.45;79.87
73085;BME280;62974;49.460;10.892;2023-04-09T04:01:20;98509.38;;;5.45;79.82
73085;BME280;62974;49.460;10.892;2023-04-09T04:03:48;98507.59;;;5.36;79.10
73085;BME280;62974;49.460;10.892;2023-04-09T04:06:16;98519.22;;;5.35;79.32
73085;BME280;62974;49.460;10.892;2023-04-09T04:08:43;98515.50;;;5.28;78.95
73085;BME280;62974;49.460;10.892;2023-04-09T04:11:11;98516.03;;;5.32;79.22
73085;BME280;62974;49.460;10.892;2023-04-09T04:13:38;98520.56;;;5.21;79.47
73085;BME280;62974;49.460;10.892;2023-04-09T04:16:06;98524.22;;;5.20;79.18
73085;BME280;62974;49.460;10.892;2023-04-09T04:18:33;98519.50;;;5.14;78.73
73085;BME280;62974;49.460;10.892;2023-04-09T04:21:02;98523.16;;;5.13;78.92
73085;BME280;62974;49.460;10.892;2023-04-09T04:23:30;98522.06;;;5.06;78.23
73085;BME280;62974;49.460;10.892;2023-04-09T04:25:57;98512.84;;;5.01;78.21
73085;BME280;62974;49.460;10.892;2023-04-09T04:28:25;98519.03;;;5.01;78.71
73085;BME280;62974;49.460;10.892;2023-04-09T04:30:52;98525.63;;;4.97;78.96
73085;BME280;62974;49.460;10.892;2023-04-09T04:33:20;98528.56;;;4.94;78.01
73085;BME280;62974;49.460;10.892;2023-04-09T04:35:47;98530.94;;;4.97;78.06
73085;BME280;62974;49.460;10.892;2023-04-09T04:38:16;98537.38;;;4.95;78.70
73085;BME280;62974;49.460;10.892;2023-04-09T04:40:44;98540.88;;;4.95;78.56
73085;BME280;62974;49.460;10.892;2023-04-09T04:43:12;98544.72;;;4.83;78.56
73085;BME280;62974;49.460;10.892;2023-04-09T04:45:39;98538.34;;;4.94;77.56
73085;BME280;62974;49.460;10.892;2023-04-09T04:48:07;98544.09;;;4.99;77.54
73085;BME280;62974;49.460;10.892;2023-04-09T04:50:34;98550.16;;;4.91;78.47
73085;BME280;62974;49.460;10.892;2023-04-09T04:53:02;98545.84;;;4.81;78.53
73085;BME280;62974;49.460;10.892;2023-04-09T04:55:35;98550.03;;;4.83;78.12
73085;BME280;62974;49.460;10.892;2023-04-09T04:58:04;98548.34;;;4.82;78.09
73085;BME280;62974;49.460;10.892;2023-04-09T05:00:32;98552.44;;;4.77;78.22
73085;BME280;62974;49.460;10.892;2023-04-09T05:02:59;98557.50;;;4.70;78.17
73085;BME280;62974;49.460;10.892;2023-04-09T05:05:27;98551.19;;;4.71;77.64
73085;BME280;62974;49.460;10.892;2023-04-09T05:07:55;98551.50;;;4.68;77.39
73085;BME280;62974;49.460;10.892;2023-04-09T05:10:22;98547.56;;;4.72;77.73
73085;BME280;62974;49.460;10.892;2023-04-09T05:12:51;98554.94;;;4.78;77.50
73085;BME280;62974;49.460;10.892;2023-04-09T05:15:19;98544.59;;;4.85;77.78
73085;BME280;62974;49.460;10.892;2023-04-09T05:17:46;98546.84;;;5.34;76.32
73085;BME280;62974;49.460;10.892;2023-04-09T05:20:14;98540.97;;;5.93;75.47
73085;BME280;62974;49.460;10.892;2023-04-09T05:22:42;98545.44;;;6.28;74.59
73085;BME280;62974;49.460;10.892;2023-04-09T05:25:09;98538.59;;;6.51;73.50
73085;BME280;62974;49.460;10.892;2023-04-09T05:27:37;98544.75;;;6.78;71.98
73085;BME280;62974;49.460;10.892;2023-04-09T05:30:07;98541.16;;;6.87;72.85
73085;BME280;62974;49.460;10.892;2023-04-09T05:32:35;98533.50;;;6.14;72.45
73085;BME280;62974;49.460;10.892;2023-04-09T05:35:03;98548.88;;;5.67;74.64
73085;BME280;62974;49.460;10.892;2023-04-09T05:37:31;98548.66;;;5.61;75.24
73085;BME280;62974;49.460;10.892;2023-04-09T05:39:59;98556.47;;;5.62;75.58
73085;BME280;62974;49.460;10.892;2023-04-09T05:42:26;98552.28;;;5.60;75.86
73085;BME280;62974;49.460;10.892;2023-04-09T05:44:58;98559.97;;;5.63;76.20
73085;BME280;62974;49.460;10.892;2023-04-09T05:47:27;98553.97;;;5.61;75.56
73085;BME280;62974;49.460;10.892;2023-04-09T05:49:59;98557.63;;;5.60;75.99
73085;BME280;62974;49.460;10.892;2023-04-09T05:52:27;98573.31;;;5.36;79.59
73085;BME280;62974;49.460;10.892;2023-04-09T05:54:54;98571.41;;;5.01;81.59
73085;BME280;62974;49.460;10.892;2023-04-09T05:57:22;98571.72;;;5.25;80.61
73085;BME280;62974;49.460;10.892;2023-04-09T05:59:49;98584.09;;;4.70;84.85
73085;BME280;62974;49.460;10.892;2023-04-09T06:02:19;98565.75;;;5.13;83.33
73085;BME280;62974;49.460;10.892;2023-04-09T06:04:48;98573.56;;;5.15;83.74
73085;BME280;62974;49.460;10.892;2023-04-09T06:07:16;98564.28;;;5.46;79.58
73085;BME280;62974;49.460;10.892;2023-04-09T06:09:47;98563.16;;;5.49;79.22
73085;BME280;62974;49.460;10.892;2023-04-09T06:12:15;98575.59;;;5.31;82.54
73085;BME280;62974;49.460;10.892;2023-04-09T06:14:46;98582.06;;;5.28;84.04
73085;BME280;62974;49.460;10.892;2023-04-09T06:17:13;98582.41;;;5.15;87.05
73085;BME280;62974;49.460;10.892;2023-04-09T06:19:45;98588.09;;;4.93;90.76
73085;BME280;62974;49.460;10.892;2023-04-09T06:22:14;98588.75;;;5.05;91.82
73085;BME280;62974;49.460;10.892;2023-04-09T06:24:45;98584.38;;;5.13;87.77
73085;BME280;62974;49.460;10.892;2023-04-09T06:27:18;98572.50;;;5.35;84.88
73085;BME280;62974;49.460;10.892;2023-04-09T06:29:47;98570.75;;;5.44;82.90
73085;BME280;62974;49.460;10.892;2023-04-09T06:32:18;98570.31;;;5.48;82.24
73085;BME280;62974;49.460;10.892;2023-04-09T06:34:45;98581.09;;;5.47;83.78
73085;BME280;62974;49.460;10.892;2023-04-09T06:37:14;98590.03;;;5.28;87.98
73085;BME280;62974;49.460;10.892;2023-04-09T06:39:42;98583.94;;;5.45;87.38
73085;BME280;62974;49.460;10.892;2023-04-09T06:42:25;98586.53;;;5.55;85.45
73085;BME280;62974;49.460;10.892;2023-04-09T06:44:56;98586.44;;;5.47;85.75
73085;BME280;62974;49.460;10.892;2023-04-09T06:47:23;98586.13;;;5.50;85.07
73085;BME280;62974;49.460;10.892;2023-04-09T06:49:51;98584.78;;;5.63;82.93
73085;BME280;62974;49.460;10.892;2023-04-09T06:52:20;98595.59;;;5.62;86.94
73085;BME280;62974;49.460;10.892;2023-04-09T06:54:47;98581.50;;;5.69;85.27
73085;BME280;62974;49.460;10.892;2023-04-09T06:57:15;98590.63;;;5.94;86.90
73085;BME280;62974;49.460;10.892;2023-04-09T06:59:42;98584.88;;;5.72;85.08
73085;BME280;62974;49.460;10.892;2023-04-09T07:02:10;98595.50;;;5.81;84.62
73085;BME280;62974;49.460;10.892;2023-04-09T07:04:37;98590.97;;;6.09;84.51
73085;BME280;62974;49.460;10.892;2023-04-09T07:07:05;98586.28;;;5.93;83.44
73085;BME280;62974;49.460;10.892;2023-04-09T07:09:34;98587.66;;;5.97;83.55
73085;BME280;62974;49.460;10.892;2023-04-09T07:12:01;98593.97;;;6.14;83.94
73085;BME280;62974;49.460;10.892;2023-04-09T07:14:39;98591.50;;;6.12;83.74
73085;BME280;62974;49.460;10.892;2023-04-09T07:17:07;98588.91;;;6.21;83.71
73085;BME280;62974;49.460;10.892;2023-04-09T07:19:35;98592.97;;;6.50;83.79
73085;BME280;62974;49.460;10.892;2023-04-09T07:22:04;98592.44;;;6.47;82.52
73085;BME280;62974;49.460;10.892;2023-04-09T07:24:33;98592.28;;;6.48;82.67
73085;BME280;62974;49.460;10.892;2023-04-09T07:27:02;98600.03;;;6.16;83.74
73085;BME280;62974;49.460;10.892;2023-04-09T07:29:32;98594.81;;;6.32;82.51
73085;BME280;62974;49.460;10.892;2023-04-09T07:32:05;98596.22;;;6.62;82.65
73085;BME280;62974;49.460;10.892;2023-04-09T07:34:33;98596.09;;;6.46;80.58
73085;BME280;62974;49.460;10.892;2023-04-09T07:37:00;98593.59;;;6.70;81.00
73085;BME280;62974;49.460;10.892;2023-04-09T07:39:28;98587.16;;;7.06;80.40
73085;BME280;62974;49.460;10.892;2023-04-09T07:42:02;98582.84;;;7.14;79.10
73085;BME280;62974;49.460;10.892;2023-04-09T07:44:32;98592.53;;;7.15;79.87
73085;BME280;62974;49.460;10.892;2023-04-09T07:47:02;98588.19;;;6.62;79.67
73085;BME280;62974;49.460;10.892;2023-04-09T07:49:30;98590.22;;;7.20;79.19
73085;BME280;62974;49.460;10.892;2023-04-09T07:51:58;98588.63;;;7.35;77.49
73085;BME280;62974;49.460;10.892;2023-04-09T07:54:25;98590.97;;;7.04;79.09
73085;BME280;62974;49.460;10.892;2023-04-09T07:56:53;98587.38;;;6.87;79.29
73085;BME280;62974;49.460;10.892;2023-04-09T07:59:23;98591.91;;;6.95;78.80
73085;BME280;62974;49.460;10.892;2023-04-09T08:01:53;98593.31;;;7.41;77.57
73085;BME280;62974;49.460;10.892;2023-04-09T08:04:20;98600.91;;;7.20;78.23
73085;BME280;62974;49.460;10.892;2023-04-09T08:06:48;98587.94;;;7.33;75.49
73085;BME280;62974;49.460;10.892;2023-04-09T08:09:21;98584.38;;;7.66;74.35
73085;BME280;62974;49.460;10.892;2023-04-09T08:11:49;98586.63;;;7.87;71.61
73085;BME280;62974;49.460;10.892;2023-04-09T08:14:19;98598.25;;;7.70;75.26
73085;BME280;62974;49.460;10.892;2023-04-09T08:16:48;98581.25;;;7.87;68.90
73085;BME280;62974;49.460;10.892;2023-04-09T08:19:17;98585.63;;;8.12;69.04
73085;BME280;62974;49.460;10.892;2023-04-09T08:21:45;98593.84;;;7.52;71.44
73085;BME280;62974;49.460;10.892;2023-04-09T08:24:17;98594.81;;;7.35;71.28
73085;BME280;62974;49.460;10.892;2023-04-09T08:26:44;98600.66;;;7.39;73.75
73085;BME280;62974;49.460;10.892;2023-04-09T08:29:14;98594.81;;;8.01;71.38
73085;BME280;62974;49.460;10.892;2023-04-09T08:31:48;98595.66;;;7.94;72.57
73085;BME280;62974;49.460;10.892;2023-04-09T08:34:18;98587.50;;;8.20;69.09
73085;BME280;62974;49.460;10.892;2023-04-09T08:36:47;98589.66;;;8.00;69.29
73085;BME280;62974;49.460;10.892;2023-04-09T08:39:15;98597.22;;;8.77;70.21
73085;BME280;62974;49.460;10.892;2023-04-09T08:41:44;98589.50;;;8.18;69.08
73085;BME280;62974;49.460;10.892;2023-04-09T08:44:12;98597.94;;;7.81;70.42
73085;BME280;62974;49.460;10.892;2023-04-09T08:46:39;98587.78;;;7.92;69.05
73085;BME280;62974;49.460;10.892;2023-04-09T08:49:08;98582.44;;;7.92;68.85
73085;BME280;62974;49.460;10.892;2023-04-09T08:51:36;98592.34;;;8.08;69.59
73085;BME280;62974;49.460;10.892;2023-04-09T08:54:05;98585.97;;;8.17;69.80
73085;BME280;62974;49.460;10.892;2023-04-09T08:56:33;98585.47;;;8.22;69.30
73085;BME280;62974;49.460;10.892;2023-04-09T08:59:00;98581.63;;;8.16;69.56
73085;BME280;62974;49.460;10.892;2023-04-09T09:01:30;98574.16;;;8.36;66.37
73085;BME280;62974;49.460;10.892;2023-04-09T09:04:00;98583.47;;;8.80;66.43
73085;BME280;62974;49.460;10.892;2023-04-09T09:06:31;98585.16;;;8.81;67.67
73085;BME280;62974;49.460;10.892;2023-04-09T09:09:04;98587.34;;;8.37;69.13
73085;BME280;62974;49.460;10.892;2023-04-09T09:11:36;98575.66;;;8.63;67.70
73085;BME280;62974;49.460;10.892;2023-04-09T09:14:05;98578.84;;;9.21;66.75
73085;BME280;62974;49.460;10.892;2023-04-09T09:16:34;98565.81;;;9.18;62.43
73085;BME280;62974;49.460;10.892;2023-04-09T09:19:05;98579.69;;;9.22;63.64
73085;BME280;62974;49.460;10.892;2023-04-09T09:21:37;98585.16;;;8.65;64.36
73085;BME280;62974;49.460;10.892;2023-04-09T09:24:15;98588.28;;;9.01;64.96
73085;BME280;62974;49.460;10.892;2023-04-09T09:26:43;98586.59;;;9.08;63.95
73085;BME280;62974;49.460;10.892;2023-04-09T09:29:11;98576.25;;;10.06;61.34
73085;BME280;62974;49.460;10.892;2023-04-09T09:31:45;98570.84;;;9.52;60.04
73085;BME280;62974;49.460;10.892;2023-04-09T09:34:15;98579.75;;;9.44;61.14
73085;BME280;62974;49.460;10.892;2023-04-09T09:36:47;98567.75;;;10.25;58.45
73085;BME280;62974;49.460;10.892;2023-04-09T09:39:16;98578.47;;;10.02;60.84
73085;BME280;62974;49.460;10.892;2023-04-09T09:41:46;98580.25;;;10.10;60.98
73085;BME280;62974;49.460;10.892;2023-04-09T09:44:30;98582.19;;;10.24;60.01
73085;BME280;62974;49.460;10.892;2023-04-09T09:46:59;98581.34;;;9.93;59.53
73085;BME280;62974;49.460;10.892;2023-04-09T09:49:30;98574.88;;;10.10;58.05
73085;BME280;62974;49.460;10.892;2023-04-09T09:51:59;98582.28;;;9.77;58.31
73085;BME280;62974;49.460;10.892;2023-04-09T09:54:34;98579.78;;;9.75;59.47
73085;BME280;62974;49.460;10.892;2023-04-09T09:57:08;98579.53;;;9.23;58.74
73085;BME280;62974;49.460;10.892;2023-04-09T09:59:40;98590.09;;;9.17;60.19
73085;BME280;62974;49.460;10.892;2023-04-09T10:02:17;98565.16;;;10.09;57.90
73085;BME280;62974;49.460;10.892;2023-04-09T10:04:49;98561.22;;;9.97;57.14
73085;BME280;62974;49.460;10.892;2023-04-09T10:07:23;98553.88;;;10.13;55.77
73085;BME280;62974;49.460;10.892;2023-04-09T10:09:53;98548.06;;;10.10;56.50
73085;BME280;62974;49.460;10.892;2023-04-09T10:12:25;98557.03;;;10.62;58.54
73085;BME280;62974;49.460;10.892;2023-04-09T10:14:54;98571.78;;;10.44;60.41
73085;BME280;62974;49.460;10.892;2023-04-09T10:17:22;98561.59;;;10.39;58.01
73085;BME280;62974;49.460;10.892;2023-04-09T10:19:54;98559.00;;;10.83;57.54
73085;BME280;62974;49.460;10.892;2023-04-09T10:22:25;98568.59;;;10.25;59.78
73085;BME280;62974;49.460;10.892;2023-04-09T10:24:55;98575.19;;;9.84;61.72
73085;BME280;62974;49.460;10.892;2023-04-09T10:27:26;98575.16;;;9.61;64.19
73085;BME280;62974;49.460;10.892;2023-04-09T10:29:56;98561.88;;;9.68;59.62
73085;BME280;62974;49.460;10.892;2023-04-09T10:32:33;98569.41;;;9.72;61.52
73085;BME280;62974;49.460;10.892;2023-04-09T10:35:02;98557.63;;;9.81;58.77
73085;BME280;62974;49.460;10.892;2023-04-09T10:37:34;98548.47;;;10.44;59.18
73085;BME280;62974;49.460;10.892;2023-04-09T10:40:02;98556.38;;;9.92;61.26
73085;BME280;62974;49.460;10.892;2023-04-09T10:42:35;98551.66;;;10.25;59.75
73085;BME280;62974;49.460;10.892;2023-04-09T10:45:07;98542.31;;;10.35;57.42
73085;BME280;62974;49.460;10.892;2023-04-09T10:47:36;98539.97;;;10.55;58.11
73085;BME280;62974;49.460;10.892;2023-04-09T10:50:14;98538.59;;;10.22;56.22
73085;BME280;62974;49.460;10.892;2023-04-09T10:52:43;98549.53;;;10.12;58.75
73085;BME280;62974;49.460;10.892;2023-04-09T10:55:29;98548.47;;;10.44;59.83
73085;BME280;62974;49.460;10.892;2023-04-09T10:58:00;98556.22;;;10.62;61.52
73085;BME280;62974;49.460;10.892;2023-04-09T11:00:29;98546.31;;;10.40;59.08
73085;BME280;62974;49.460;10.892;2023-04-09T11:03:17;98542.78;;;10.76;57.85
73085;BME280;62974;49.460;10.892;2023-04-09T11:05:49;98555.50;;;10.45;57.31
73085;BME280;62974;49.460;10.892;2023-04-09T11:08:19;98540.03;;;10.84;55.80
73085;BME280;62974;49.460;10.892;2023-04-09T11:10:49;98556.56;;;10.59;58.18
73085;BME280;62974;49.460;10.892;2023-04-09T11:13:19;98548.16;;;10.76;54.11
73085;BME280;62974;49.460;10.892;2023-04-09T11:15:47;98549.41;;;10.51;54.74
73085;BME280;62974;49.460;10.892;2023-04-09T11:18:21;98554.50;;;10.46;55.89
73085;BME280;62974;49.460;10.892;2023-04-09T11:20:53;98546.25;;;10.48;53.79
73085;BME280;62974;49.460;10.892;2023-04-09T11:23:26;98548.47;;;10.81;54.39
73085;BME280;62974;49.460;10.892;2023-04-09T11:25:54;98542.03;;;10.68;55.46
73085;BME280;62974;49.460;10.892;2023-04-09T11:28:22;98539.97;;;10.55;54.26
73085;BME280;62974;49.460;10.892;2023-04-09T11:30:50;98544.16;;;10.58;53.92
73085;BME280;62974;49.460;10.892;2023-04-09T11:33:18;98561.47;;;10.32;59.43
73085;BME280;62974;49.460;10.892;2023-04-09T11:35:46;98552.78;;;10.68;57.38
73085;BME280;62974;49.460;10.892;2023-04-09T11:38:17;98549.22;;;10.53;54.90
73085;BME280;62974;49.460;10.892;2023-04-09T11:40:46;98555.69;;;10.44;57.33
73085;BME280;62974;49.460;10.892;2023-04-09T11:43:15;98551.28;;;10.51;57.45
73085;BME280;62974;49.460;10.892;2023-04-09T11:45:44;98548.75;;;10.49;57.60
73085;BME280;62974;49.460;10.892;2023-04-09T11:48:13;98548.03;;;10.55;56.30
73085;BME280;62974;49.460;10.892;2023-04-09T11:50:41;98537.94;;;10.43;54.12
73085;BME280;62974;49.460;10.892;2023-04-09T11:53:15;98539.22;;;10.99;54.28
73085;BME280;62974;49.460;10.892;2023-04-09T11:55:48;98534.81;;;10.68;54.05
73085;BME280;62974;49.460;10.892;2023-04-09T11:58:16;98536.13;;;10.72;53.04
73085;BME280;62974;49.460;10.892;2023-04-09T12:00:47;98537.06;;;11.23;52.59
73085;BME280;62974;49.460;10.892;2023-04-09T12:03:14;98529.13;;;11.66;52.76
73085;BME280;62974;49.460;10.892;2023-04-09T12:05:44;98546.41;;;11.27;56.72
73085;BME280;62974;49.460;10.892;2023-04-09T12:08:22;98539.00;;;11.44;54.33
73085;BME280;62974;49.460;10.892;2023-04-09T12:10:51;98531.94;;;11.94;51.18
73085;BME280;62974;49.460;10.892;2023-04-09T12:13:31;98539.34;;;11.56;53.18
73085;BME280;62974;49.460;10.892;2023-04-09T12:15:59;98535.94;;;11.98;47.84
73085;BME280;62974;49.460;10.892;2023-04-09T12:18:27;98550.06;;;12.06;47.66
73085;BME280;62974;49.460;10.892;2023-04-09T12:20:56;98562.19;;;11.16;51.20
73085;BME280;62974;49.460;10.892;2023-04-09T12:23:24;98554.41;;;11.21;51.03
73085;BME280;62974;49.460;10.892;2023-04-09T12:25:53;98551.34;;;11.09;48.68
73085;BME280;62974;49.460;10.892;2023-04-09T12:28:21;98541.16;;;11.34;49.07
73085;BME280;62974;49.460;10.892;2023-04-09T12:30:49;98562.13;;;11.89;51.62
73085;BME280;62974;49.460;10.892;2023-04-09T12:33:17;98546.38;;;12.07;47.70
73085;BME280;62974;49.460;10.892;2023-04-09T12:35:45;98557.16;;;11.27;50.26
73085;BME280;62974;49.460;10.892;2023-04-09T12:38:13;98559.97;;;11.05;51.10
73085;BME280;62974;49.460;10.892;2023-04-09T12:40:40;98557.09;;;11.21;51.22
73085;BME280;62974;49.460;10.892;2023-04-09T12:43:12;98545.41;;;11.94;50.93
73085;BME280;62974;49.460;10.892;2023-04-09T12:45:42;98541.03;;;11.42;52.21
73085;BME280;62974;49.460;10.892;2023-04-09T12:48:10;98539.66;;;11.46;51.25
73085;BME280;62974;49.460;10.892;2023-04-09T12:50:37;98531.94;;;11.43;49.96
73085;BME280;62974;49.460;10.892;2023-04-09T12:53:05;98522.00;;;11.44;47.48
73085;BME280;62974;49.460;10.892;2023-04-09T12:55:34;98535.47;;;11.44;51.54
73085;BME280;62974;49.460;10.892;2023-04-09T12:58:01;98522.22;;;11.42;47.38
73085;BME280;62974;49.460;10.892;2023-04-09T13:00:30;98528.50;;;11.49;47.48
73085;BME280;62974;49.460;10.892;2023-04-09T13:02:58;98516.28;;;11.32;46.99
73085;BME280;62974;49.460;10.892;2023-04-09T13:05:26;98509.13;;;11.39;46.75
73085;BME280;62974;49.460;10.892;2023-04-09T13:07:54;98523.81;;;11.22;49.39